createdAt,value
2023-01-07T00:00:45.267Z,101702.40
2023-01-07T00:03:19.337Z,101715.27
2023-01-07T00:05:50.157Z,101720.76
2023-01-07T00:08:20.921Z,101725.23
2023-01-07T00:10:51.839Z,101724.25
2023-01-07T00:13:22.546Z,101725.13
2023-01-07T00:15:53.301Z,101726.16
2023-01-07T00:18:24.097Z,101724.84
2023-01-07T00:20:57.258Z,101725.34
2023-01-07T00:23:28.339Z,101723.23
2023-01-07T00:26:02.555Z,101720.71
2023-01-07T00:28:34.327Z,101717.20
2023-01-07T00:31:05.981Z,101716.88
2023-01-07T00:33:37.983Z,101711.63
2023-01-07T00:36:09.677Z,101711.31
2023-01-07T00:38:40.624Z,101708.52
2023-01-07T00:41:11.720Z,101707.48
2023-01-07T00:43:42.436Z,101698.30
2023-01-07T00:46:13.080Z,101693.44
2023-01-07T00:48:45.023Z,101692.02
2023-01-07T00:51:16.647Z,101697.92
2023-01-07T00:53:47.338Z,101703.79
2023-01-07T00:56:19.238Z,101705.91
2023-01-07T00:58:49.987Z,101706.64
2023-01-07T01:01:20.774Z,101705.73
2023-01-07T01:03:51.551Z,101702.77
2023-01-07T01:06:22.310Z,101696.70
2023-01-07T01:08:53.071Z,101694.33
2023-01-07T01:11:23.786Z,101698.58
2023-01-07T01:13:54.721Z,101703.16
2023-01-07T01:16:25.458Z,101705.02
2023-01-07T01:18:56.280Z,101701.36
2023-01-07T01:21:27.173Z,101692.63
2023-01-07T01:23:57.905Z,101695.94
2023-01-07T01:26:28.584Z,101694.31
2023-01-07T01:28:59.313Z,101694.38
2023-01-07T01:31:29.984Z,101687.56
2023-01-07T01:34:01.201Z,101686.57
2023-01-07T01:36:32.059Z,101680.43
2023-01-07T01:39:02.803Z,101676.64
2023-01-07T01:41:33.611Z,101672.65
2023-01-07T01:44:04.380Z,101672.51
2023-01-07T01:46:36.359Z,101674.95
2023-01-07T01:49:07.599Z,101674.48
2023-01-07T01:51:38.464Z,101666.77
2023-01-07T01:54:09.902Z,101667.51
2023-01-07T01:56:41.031Z,101669.43
2023-01-07T01:59:12.056Z,101664.23
2023-01-07T02:01:42.891Z,101665.81
2023-01-07T02:04:14.515Z,101667.73
2023-01-07T02:06:46.506Z,101663.59
2023-01-07T02:09:17.289Z,101651.69
2023-01-07T02:11:48.440Z,101652.22
2023-01-07T02:14:24.280Z,101663.55
2023-01-07T02:16:56.766Z,101675.98
2023-01-07T02:19:34.548Z,101678.39
2023-01-07T02:22:07.843Z,101685.12
2023-01-07T02:24:54.971Z,101692.02
2023-01-07T02:27:31.732Z,101689.13
2023-01-07T02:30:17.417Z,101687.55
2023-01-07T02:33:13.659Z,101686.43
2023-01-07T02:36:03.640Z,101676.81
2023-01-07T02:38:35.699Z,101672.80
2023-01-07T02:41:10.007Z,101674.09
2023-01-07T02:43:41.767Z,101672.16
2023-01-07T02:46:14.388Z,101672.00
2023-01-07T02:48:45.051Z,101676.05
2023-01-07T02:51:15.881Z,101677.00
2023-01-07T02:53:46.804Z,101674.37
2023-01-07T02:56:21.299Z,101675.45
2023-01-07T02:58:58.128Z,101678.28
2023-01-07T03:01:34.167Z,101678.08
2023-01-07T03:04:22.573Z,101677.21
2023-01-07T03:06:56.636Z,101672.08
2023-01-07T03:09:30.540Z,101673.15
2023-01-07T03:12:02.080Z,101668.72
2023-01-07T03:14:34.309Z,101660.48
2023-01-07T03:17:06.352Z,101652.05
2023-01-07T03:19:37.832Z,101653.81
2023-01-07T03:22:09.133Z,101657.07
2023-01-07T03:24:39.825Z,101662.42
2023-01-07T03:27:10.593Z,101660.90
2023-01-07T03:29:41.909Z,101658.23
2023-01-07T03:32:13.086Z,101664.67
2023-01-07T03:34:43.815Z,101662.91
2023-01-07T03:37:15.612Z,101660.30
2023-01-07T03:39:46.441Z,101662.27
2023-01-07T03:42:34.694Z,101659.06
2023-01-07T03:45:05.917Z,101652.48
2023-01-07T03:47:36.588Z,101647.52
2023-01-07T03:50:07.834Z,101654.86
2023-01-07T03:52:38.642Z,101655.92
2023-01-07T03:55:10.241Z,101650.23
2023-01-07T03:57:40.975Z,101645.45
2023-01-07T04:00:13.959Z,101648.51
2023-01-07T04:02:44.636Z,101643.88
2023-01-07T04:05:15.406Z,101644.38
2023-01-07T04:07:46.035Z,101653.14
2023-01-07T04:10:16.893Z,101649.52
2023-01-07T04:12:47.502Z,101646.39
2023-01-07T04:15:18.288Z,101642.69
2023-01-07T04:17:49.012Z,101646.81
2023-01-07T04:20:19.704Z,101650.50
2023-01-07T04:22:50.402Z,101652.41
2023-01-07T04:25:21.027Z,101646.40
2023-01-07T04:27:51.730Z,101643.11
2023-01-07T04:30:22.408Z,101637.88
2023-01-07T04:32:53.158Z,101638.64
2023-01-07T04:35:23.817Z,101648.12
2023-01-07T04:37:54.498Z,101649.23
2023-01-07T04:40:25.326Z,101642.73
2023-01-07T04:42:55.949Z,101640.99
2023-01-07T04:45:26.593Z,101642.41
2023-01-07T04:48:00.311Z,101643.48
2023-01-07T04:50:30.985Z,101642.20
2023-01-07T04:53:01.759Z,101639.14
2023-01-07T04:55:32.454Z,101639.33
2023-01-07T04:58:03.121Z,101638.17
2023-01-07T05:00:33.917Z,101640.08
2023-01-07T05:03:04.614Z,101637.39
2023-01-07T05:05:35.398Z,101639.95
2023-01-07T05:08:06.544Z,101651.52
2023-01-07T05:10:37.308Z,101657.11
2023-01-07T05:13:07.959Z,101654.67
2023-01-07T05:15:38.648Z,101655.89
2023-01-07T05:18:09.366Z,101662.98
2023-01-07T05:20:40.024Z,101660.38
2023-01-07T05:23:10.658Z,101652.86
2023-01-07T05:25:41.387Z,101653.08
2023-01-07T05:28:12.254Z,101644.95
2023-01-07T05:30:43.037Z,101647.86
2023-01-07T05:33:13.664Z,101645.60
2023-01-07T05:35:44.255Z,101641.56
2023-01-07T05:38:14.963Z,101636.08
2023-01-07T05:40:49.914Z,101631.34
2023-01-07T05:43:21.618Z,101620.48
2023-01-07T05:45:52.277Z,101616.60
2023-01-07T05:48:23.431Z,101620.18
2023-01-07T05:50:54.142Z,101621.36
2023-01-07T05:53:24.925Z,101621.73
2023-01-07T05:55:58.676Z,101623.48
2023-01-07T05:58:29.490Z,101628.45
2023-01-07T06:01:00.396Z,101630.52
2023-01-07T06:03:31.400Z,101638.48
2023-01-07T06:06:07.494Z,101642.36
2023-01-07T06:08:38.746Z,101633.14
2023-01-07T06:11:10.393Z,101626.72
2023-01-07T06:13:41.182Z,101633.31
2023-01-07T06:16:12.218Z,101648.23
2023-01-07T06:18:43.233Z,101664.67
2023-01-07T06:21:16.253Z,101671.92
2023-01-07T06:23:47.010Z,101673.89
2023-01-07T06:26:17.842Z,101675.80
2023-01-07T06:28:48.784Z,101668.11
2023-01-07T06:31:19.426Z,101658.23
2023-01-07T06:33:50.225Z,101644.90
2023-01-07T06:36:20.896Z,101648.68
2023-01-07T06:38:51.781Z,101653.31
2023-01-07T06:41:22.585Z,101648.94
2023-01-07T06:43:53.302Z,101654.08
2023-01-07T06:46:24.444Z,101659.77
2023-01-07T06:48:55.302Z,101654.36
2023-01-07T06:51:26.044Z,101661.09
2023-01-07T06:53:58.676Z,101665.53
2023-01-07T06:56:30.504Z,101664.45
2023-01-07T06:59:01.292Z,101662.04
2023-01-07T07:01:32.688Z,101668.84
2023-01-07T07:04:03.489Z,101676.55
2023-01-07T07:06:34.292Z,101682.86
2023-01-07T07:09:05.057Z,101688.14
2023-01-07T07:11:35.764Z,101685.58
2023-01-07T07:14:06.508Z,101682.42
2023-01-07T07:16:37.235Z,101687.28
2023-01-07T07:19:07.970Z,101689.52
2023-01-07T07:21:38.627Z,101693.91
2023-01-07T07:24:09.434Z,101698.05
2023-01-07T07:26:40.167Z,101692.59
2023-01-07T07:29:11.555Z,101695.60
2023-01-07T07:31:42.337Z,101695.30
2023-01-07T07:34:13.186Z,101685.89
2023-01-07T07:36:43.944Z,101685.45
2023-01-07T07:39:14.864Z,101687.56
2023-01-07T07:41:45.713Z,101681.38
2023-01-07T07:44:16.633Z,101675.73
2023-01-07T07:46:47.385Z,101671.80
2023-01-07T07:49:18.146Z,101665.84
2023-01-07T07:51:48.783Z,101664.39
2023-01-07T07:54:20.118Z,101659.78
2023-01-07T07:56:51.665Z,101661.40
2023-01-07T07:59:22.289Z,101665.73
2023-01-07T08:01:53.009Z,101665.27
2023-01-07T08:04:24.274Z,101666.85
2023-01-07T08:06:55.513Z,101668.37
2023-01-07T08:09:26.182Z,101672.52
2023-01-07T08:11:57.279Z,101671.44
2023-01-07T08:14:27.991Z,101670.50
2023-01-07T08:16:59.391Z,101670.75
2023-01-07T08:19:30.288Z,101672.40
2023-01-07T08:22:00.969Z,101666.84
2023-01-07T08:24:31.753Z,101662.38
2023-01-07T08:27:02.817Z,101666.69
2023-01-07T08:29:33.548Z,101664.09
2023-01-07T08:32:04.493Z,101671.61
2023-01-07T08:34:35.463Z,101676.66
2023-01-07T08:37:06.437Z,101673.23
2023-01-07T08:39:37.622Z,101671.83
2023-01-07T08:42:08.707Z,101678.39
2023-01-07T08:44:39.689Z,101677.52
2023-01-07T08:47:10.539Z,101675.42
2023-01-07T08:49:41.173Z,101673.14
2023-01-07T08:52:11.978Z,101668.77
2023-01-07T08:54:42.910Z,101670.77
2023-01-07T08:57:13.625Z,101663.44
2023-01-07T08:59:44.345Z,101662.93
2023-01-07T09:02:17.147Z,101661.48
2023-01-07T09:04:47.907Z,101656.90
2023-01-07T09:07:18.633Z,101652.29
2023-01-07T09:09:49.381Z,101645.58
2023-01-07T09:12:20.141Z,101641.37
2023-01-07T09:14:51.036Z,101646.41
2023-01-07T09:17:24.100Z,101634.92
2023-01-07T09:19:55.091Z,101636.30
2023-01-07T09:22:25.778Z,101630.44
2023-01-07T09:24:57.265Z,101628.78
2023-01-07T09:27:28.044Z,101628.88
2023-01-07T09:29:58.761Z,101621.34
2023-01-07T09:32:29.817Z,101615.55
2023-01-07T09:35:00.668Z,101611.10
2023-01-07T09:37:31.368Z,101600.30
2023-01-07T09:40:02.391Z,101594.17
2023-01-07T09:42:35.256Z,101591.70
2023-01-07T09:45:12.338Z,101581.11
2023-01-07T09:47:44.169Z,101576.28
2023-01-07T09:50:19.279Z,101574.65
2023-01-07T09:52:50.716Z,101572.40
2023-01-07T09:55:22.725Z,101571.84
2023-01-07T09:57:53.411Z,101567.06
2023-01-07T10:00:24.908Z,101559.91
2023-01-07T10:03:00.502Z,101563.85
2023-01-07T10:05:33.282Z,101562.02
2023-01-07T10:08:29.754Z,101567.32
2023-01-07T10:10:57.474Z,101558.85
2023-01-07T10:13:44.707Z,101557.17
2023-01-07T10:16:17.202Z,101557.55
2023-01-07T10:18:51.131Z,101553.91
2023-01-07T10:21:23.217Z,101552.61
2023-01-07T10:23:55.149Z,101552.30
2023-01-07T10:26:30.371Z,101540.45
2023-01-07T10:29:02.814Z,101530.52
2023-01-07T10:31:33.608Z,101528.75
2023-01-07T10:34:04.396Z,101527.52
2023-01-07T10:36:35.844Z,101526.66
2023-01-07T10:39:13.648Z,101526.20
2023-01-07T10:41:46.555Z,101529.09
2023-01-07T10:44:28.030Z,101527.14
2023-01-07T10:47:00.877Z,101522.48
2023-01-07T10:49:35.112Z,101517.59
2023-01-07T10:52:14.267Z,101513.02
2023-01-07T10:54:49.071Z,101508.26
2023-01-07T10:57:20.729Z,101504.09
2023-01-07T10:59:51.938Z,101504.97
2023-01-07T11:02:27.797Z,101502.73
2023-01-07T11:05:00.140Z,101498.28
2023-01-07T11:07:33.717Z,101497.76
2023-01-07T11:10:05.553Z,101498.63
2023-01-07T11:12:37.894Z,101497.36
2023-01-07T11:15:10.470Z,101495.31
2023-01-07T11:17:42.092Z,101491.95
2023-01-07T11:20:12.942Z,101489.48
2023-01-07T11:22:44.571Z,101487.56
2023-01-07T11:25:31.601Z,101487.40
2023-01-07T11:28:03.532Z,101483.13
2023-01-07T11:30:36.048Z,101477.45
2023-01-07T11:33:07.405Z,101469.94
2023-01-07T11:35:41.059Z,101469.19
2023-01-07T11:38:26.506Z,101471.39
2023-01-07T11:40:59.929Z,101468.25
2023-01-07T11:43:34.092Z,101472.40
2023-01-07T11:46:20.225Z,101468.55
2023-01-07T11:48:54.080Z,101466.89
2023-01-07T11:51:24.958Z,101467.45
2023-01-07T11:53:56.962Z,101472.84
2023-01-07T11:56:29.141Z,101471.39
2023-01-07T11:59:16.982Z,101467.86
2023-01-07T12:01:48.539Z,101461.50
2023-01-07T12:04:22.668Z,101464.36
2023-01-07T12:06:54.165Z,101461.46
2023-01-07T12:09:26.913Z,101457.45
2023-01-07T12:11:58.232Z,101453.38
2023-01-07T12:14:30.037Z,101446.64
2023-01-07T12:17:09.516Z,101449.35
2023-01-07T12:19:51.223Z,101447.98
2023-01-07T12:22:25.106Z,101443.06
2023-01-07T12:25:03.155Z,101444.01
2023-01-07T12:27:35.817Z,101436.66
2023-01-07T12:30:13.541Z,101436.20
2023-01-07T12:32:48.271Z,101439.14
2023-01-07T12:35:20.678Z,101436.19
2023-01-07T12:37:53.303Z,101440.45
2023-01-07T12:40:32.866Z,101434.46
2023-01-07T12:43:17.078Z,101431.02
2023-01-07T12:45:49.093Z,101427.52
2023-01-07T12:48:23.675Z,101426.44
2023-01-07T12:50:55.619Z,101423.79
2023-01-07T12:53:29.820Z,101422.63
2023-01-07T12:56:01.709Z,101422.40
2023-01-07T12:58:38.361Z,101424.27
2023-01-07T13:01:12.849Z,101427.70
2023-01-07T13:03:46.600Z,101429.80
2023-01-07T13:06:17.846Z,101428.45
2023-01-07T13:08:51.137Z,101429.89
2023-01-07T13:11:43.443Z,101433.88
2023-01-07T13:14:17.137Z,101435.90
2023-01-07T13:16:47.965Z,101440.84
2023-01-07T13:19:18.764Z,101440.06
2023-01-07T13:21:49.415Z,101442.96
2023-01-07T13:24:55.550Z,101444.03
2023-01-07T13:27:21.483Z,101450.43
2023-01-07T13:29:58.753Z,101448.88
2023-01-07T13:32:46.832Z,101451.40
2023-01-07T13:35:31.103Z,101448.89
2023-01-07T13:38:06.327Z,101456.31
2023-01-07T13:40:45.623Z,101454.59
2023-01-07T13:43:20.299Z,101453.73
2023-01-07T13:45:54.543Z,101456.58
2023-01-07T13:48:25.662Z,101460.25
2023-01-07T13:51:00.100Z,101462.09
2023-01-07T13:53:35.141Z,101463.14
2023-01-07T13:56:19.247Z,101465.54
2023-01-07T13:58:51.789Z,101463.90
2023-01-07T14:01:22.890Z,101459.02
2023-01-07T14:03:54.209Z,101457.81
2023-01-07T14:06:44.323Z,101457.80
2023-01-07T14:09:16.386Z,101456.66
2023-01-07T14:11:51.837Z,101458.46
2023-01-07T14:14:24.665Z,101458.98
2023-01-07T14:16:56.866Z,101457.71
2023-01-07T14:19:28.612Z,101453.95
2023-01-07T14:22:00.931Z,101454.45
2023-01-07T14:24:54.200Z,101454.13
2023-01-07T14:27:29.683Z,101452.09
2023-01-07T14:30:15.472Z,101452.32
2023-01-07T14:32:47.196Z,101452.86
2023-01-07T14:35:23.812Z,101457.86
2023-01-07T14:37:54.699Z,101465.75
2023-01-07T14:40:40.363Z,101469.02
2023-01-07T14:43:24.591Z,101468.81
2023-01-07T14:45:55.906Z,101469.85
2023-01-07T14:48:31.359Z,101475.59
2023-01-07T14:51:19.609Z,101484.65
2023-01-07T14:53:58.615Z,101487.42
2023-01-07T14:56:33.555Z,101491.38
2023-01-07T14:59:13.237Z,101488.69
2023-01-07T15:01:57.510Z,101482.55
2023-01-07T15:04:32.769Z,101480.59
2023-01-07T15:07:03.633Z,101483.42
2023-01-07T15:09:54.178Z,101482.96
2023-01-07T15:12:50.109Z,101485.52
2023-01-07T15:15:40.673Z,101484.83
2023-01-07T15:18:11.910Z,101489.84
2023-01-07T15:20:47.117Z,101491.17
2023-01-07T15:23:20.909Z,101488.77
2023-01-07T15:25:55.374Z,101492.98
2023-01-07T15:28:29.692Z,101496.97
2023-01-07T15:31:01.638Z,101496.55
2023-01-07T15:33:36.898Z,101496.27
2023-01-07T15:36:09.415Z,101499.13
2023-01-07T15:38:42.563Z,101498.86
2023-01-07T15:41:23.901Z,101501.66
2023-01-07T15:43:54.739Z,101504.38
2023-01-07T15:46:26.449Z,101497.81
2023-01-07T15:49:15.506Z,101491.19
2023-01-07T15:51:49.270Z,101492.80
2023-01-07T15:54:34.474Z,101489.86
2023-01-07T15:57:06.498Z,101494.84
2023-01-07T15:59:37.948Z,101496.77
2023-01-07T16:02:14.988Z,101496.34
2023-01-07T16:04:48.636Z,101495.21
2023-01-07T16:07:22.194Z,101496.02
2023-01-07T16:09:53.015Z,101500.56
2023-01-07T16:12:28.180Z,101498.82
2023-01-07T16:14:59.032Z,101501.84
2023-01-07T16:17:29.927Z,101505.00
2023-01-07T16:20:16.608Z,101507.90
2023-01-07T16:22:47.502Z,101508.52
2023-01-07T16:25:22.388Z,101513.02
2023-01-07T16:27:53.337Z,101513.80
2023-01-07T16:30:24.426Z,101518.84
2023-01-07T16:32:56.234Z,101523.75
2023-01-07T16:35:27.943Z,101522.67
2023-01-07T16:37:58.934Z,101524.09
2023-01-07T16:40:31.543Z,101523.38
2023-01-07T16:43:02.663Z,101526.02
2023-01-07T16:45:33.907Z,101529.40
2023-01-07T16:48:19.268Z,101534.15
2023-01-07T16:50:51.334Z,101536.62
2023-01-07T16:53:26.506Z,101535.77
2023-01-07T16:56:12.843Z,101535.95
2023-01-07T16:58:45.209Z,101532.11
2023-01-07T17:01:19.747Z,101533.61
2023-01-07T17:10:29.954Z,101528.54
2023-01-07T17:13:01.441Z,101523.29
2023-01-07T17:15:36.569Z,101524.20
2023-01-07T17:18:29.105Z,101524.32
2023-01-07T17:21:01.098Z,101526.67
2023-01-07T17:23:38.607Z,101526.92
2023-01-07T17:26:13.952Z,101523.55
2023-01-07T17:28:46.356Z,101519.98
2023-01-07T17:31:17.538Z,101520.48
2023-01-07T17:33:48.383Z,101523.04
2023-01-07T17:36:20.339Z,101527.88
2023-01-07T17:38:51.131Z,101526.88
2023-01-07T17:41:40.047Z,101526.11
2023-01-07T17:44:13.126Z,101523.64
2023-01-07T17:46:43.987Z,101520.02
2023-01-07T17:49:14.876Z,101524.89
2023-01-07T17:51:46.022Z,101523.41
2023-01-07T17:54:19.858Z,101524.61
2023-01-07T17:56:50.897Z,101521.67
2023-01-07T17:59:22.474Z,101524.71
2023-01-07T18:01:57.062Z,101531.23
2023-01-07T18:04:31.461Z,101532.92
2023-01-07T18:07:03.519Z,101536.20
2023-01-07T18:09:34.659Z,101538.19
2023-01-07T18:12:23.243Z,101538.70
2023-01-07T18:14:55.344Z,101538.13
2023-01-07T18:17:26.332Z,101541.80
2023-01-07T18:19:57.426Z,101541.17
2023-01-07T18:22:28.387Z,101544.53
2023-01-07T18:24:59.233Z,101543.80
2023-01-07T18:27:46.861Z,101544.71
2023-01-07T18:30:18.733Z,101545.42
2023-01-07T18:32:51.485Z,101545.23
2023-01-07T18:35:22.893Z,101544.48
2023-01-07T18:37:54.083Z,101544.13
2023-01-07T18:40:24.922Z,101545.08
2023-01-07T18:42:55.766Z,101546.73
2023-01-07T18:45:26.640Z,101551.27
2023-01-07T18:47:57.562Z,101550.71
2023-01-07T18:50:28.429Z,101555.27
2023-01-07T18:52:59.387Z,101558.19
2023-01-07T18:55:31.248Z,101560.92
2023-01-07T18:58:13.646Z,101559.38
2023-01-07T19:00:56.883Z,101555.83
2023-01-07T19:03:46.598Z,101555.65
2023-01-07T19:06:27.847Z,101553.05
2023-01-07T19:09:01.282Z,101552.18
2023-01-07T19:11:37.711Z,101551.08
2023-01-07T19:14:17.525Z,101555.08
2023-01-07T19:16:55.884Z,101550.34
2023-01-07T19:19:34.320Z,101549.16
2023-01-07T19:22:15.925Z,101546.97
2023-01-07T19:24:51.210Z,101545.83
2023-01-07T19:27:22.427Z,101544.23
2023-01-07T19:29:54.119Z,101544.08
2023-01-07T19:32:26.464Z,101547.27
2023-01-07T19:35:16.341Z,101547.57
2023-01-07T19:38:02.211Z,101542.92
2023-01-07T19:40:45.058Z,101546.95
2023-01-07T19:43:22.507Z,101548.48
2023-01-07T19:46:10.198Z,101543.86
2023-01-07T19:48:53.222Z,101544.83
2023-01-07T19:51:27.271Z,101547.85
2023-01-07T19:54:19.156Z,101544.92
2023-01-07T19:56:56.525Z,101543.80
2023-01-07T19:59:34.923Z,101547.96
2023-01-07T20:02:07.449Z,101550.48
2023-01-07T20:04:40.282Z,101553.66
2023-01-07T20:07:11.220Z,101553.27
2023-01-07T20:09:42.355Z,101557.83
2023-01-07T20:12:13.386Z,101558.75
2023-01-07T20:14:45.269Z,101561.61
2023-01-07T20:17:16.097Z,101562.80
2023-01-07T20:19:46.827Z,101561.68
2023-01-07T20:22:17.574Z,101558.21
2023-01-07T20:24:48.268Z,101558.11
2023-01-07T20:27:19.133Z,101554.45
2023-01-07T20:29:49.927Z,101554.84
2023-01-07T20:32:20.861Z,101548.54
2023-01-07T20:34:51.612Z,101547.73
2023-01-07T20:37:24.180Z,101545.27
2023-01-07T20:39:54.882Z,101545.75
2023-01-07T20:42:26.952Z,101549.48
2023-01-07T20:44:57.722Z,101550.64
2023-01-07T20:47:29.019Z,101556.56
2023-01-07T20:50:01.513Z,101555.53
2023-01-07T20:52:32.388Z,101555.09
2023-01-07T20:55:05.823Z,101558.77
2023-01-07T20:57:58.939Z,101559.48
2023-01-07T21:00:29.782Z,101558.36
2023-01-07T21:03:00.729Z,101558.74
2023-01-07T21:05:32.413Z,101556.80
2023-01-07T21:08:03.700Z,101556.16
2023-01-07T21:10:34.494Z,101558.45
2023-01-07T21:13:05.872Z,101562.40
2023-01-07T21:15:38.645Z,101569.88
2023-01-07T21:18:09.671Z,101568.75
2023-01-07T21:20:43.165Z,101570.58
2023-01-07T21:23:14.671Z,101572.39
2023-01-07T21:25:49.347Z,101570.88
2023-01-07T21:28:20.114Z,101566.97
2023-01-07T21:30:50.967Z,101561.45
2023-01-07T21:33:21.670Z,101566.27
2023-01-07T21:35:52.355Z,101565.66
2023-01-07T21:38:23.193Z,101564.55
2023-01-07T21:40:54.135Z,101560.21
2023-01-07T21:43:24.998Z,101561.63
2023-01-07T21:45:56.509Z,101558.27
2023-01-07T21:48:27.402Z,101558.73
2023-01-07T21:50:58.546Z,101558.34
2023-01-07T21:53:29.373Z,101553.75
2023-01-07T21:56:00.097Z,101551.52
2023-01-07T21:58:30.862Z,101552.92
2023-01-07T22:01:01.568Z,101547.66
2023-01-07T22:03:32.574Z,101544.66
2023-01-07T22:06:03.825Z,101547.20
2023-01-07T22:08:34.765Z,101551.77
2023-01-07T22:11:05.632Z,101551.86
2023-01-07T22:13:36.384Z,101553.38
2023-01-07T22:16:07.453Z,101550.50
2023-01-07T22:18:38.188Z,101550.55
2023-01-07T22:21:09.025Z,101549.75
2023-01-07T22:23:39.848Z,101551.24
2023-01-07T22:26:11.188Z,101552.10
2023-01-07T22:28:41.936Z,101545.58
2023-01-07T22:31:15.073Z,101546.27
2023-01-07T22:33:45.880Z,101547.44
2023-01-07T22:36:17.226Z,101547.66
2023-01-07T22:38:48.035Z,101547.44
2023-01-07T22:41:18.892Z,101544.66
2023-01-07T22:43:49.713Z,101542.48
2023-01-07T22:46:21.157Z,101544.20
2023-01-07T22:48:51.978Z,101544.16
2023-01-07T22:51:25.143Z,101547.81
2023-01-07T22:53:56.326Z,101546.13
2023-01-07T22:56:27.019Z,101543.59
2023-01-07T22:58:57.797Z,101537.74
2023-01-07T23:01:29.513Z,101533.73
2023-01-07T23:04:04.593Z,101532.79
2023-01-07T23:06:36.908Z,101530.27
2023-01-07T23:09:07.786Z,101526.80
2023-01-07T23:11:51.941Z,101529.60
2023-01-07T23:14:24.782Z,101522.59
2023-01-07T23:16:55.835Z,101525.59
2023-01-07T23:19:30.854Z,101518.88
2023-01-07T23:22:03.841Z,101513.01
2023-01-07T23:24:35.344Z,101519.42
2023-01-07T23:27:06.925Z,101515.76
2023-01-07T23:29:39.052Z,101512.19
2023-01-07T23:32:12.701Z,101511.44
2023-01-07T23:34:44.031Z,101510.83
2023-01-07T23:37:16.444Z,101513.15
2023-01-07T23:39:48.033Z,101512.45
2023-01-07T23:42:20.576Z,101513.66
2023-01-07T23:44:51.770Z,101518.29
2023-01-07T23:47:22.882Z,101525.43
2023-01-07T23:49:54.408Z,101528.90
2023-01-07T23:52:25.834Z,101525.64
2023-01-07T23:54:57.386Z,101524.06
2023-01-07T23:57:28.734Z,101521.14
